Time;durP1;ratioP1;P1;durP2;ratioP2;P2;SDS_P1;SDS_P2;PMS_P1;PMS_P2;Temp;Humidity;BMP_temperature;BMP_pressure;BME280_temperature;BME280_humidity;BME280_pressure;Samples;Min_cycle;Max_cycle;Signal;HPM_P1;HPM_P2
2023/09/29 00:01:49;;;;;;;6.35;4.63;;;15.00;1.00;;;;;;4992025;28;20422;-87
2023/09/29 00:04:15;;;;;;;4.80;4.40;;;14.90;1.00;;;;;;4992101;28;20413;-86
2023/09/29 00:06:40;;;;;;;5.50;5.00;;;15.00;1.00;;;;;;4991739;28;20390;-85
2023/09/29 00:09:11;;;;;;;4.10;3.70;;;15.00;1.00;;;;;;4991894;28;20399;-86
2023/09/29 00:11:37;;;;;;;5.28;4.03;;;17.50;1.00;;;;;;4993276;28;20394;-85
2023/09/29 00:14:03;;;;;;;4.90;4.40;;;15.40;1.00;;;;;;4992414;28;20524;-85
2023/09/29 00:16:29;;;;;;;4.70;4.00;;;16.20;1.00;;;;;;4991976;28;20398;-85
2023/09/29 00:18:55;;;;;;;4.88;4.38;;;14.90;1.00;;;;;;4992994;28;20398;-85
2023/09/29 00:21:20;;;;;;;5.20;4.03;;;14.80;1.00;;;;;;5010751;28;20405;-85
2023/09/29 00:23:46;;;;;;;4.53;4.00;;;15.10;1.00;;;;;;5003309;28;20406;-85
2023/09/29 00:26:11;;;;;;;4.55;4.15;;;14.70;1.00;;;;;;4992716;28;20490;-84
2023/09/29 00:28:37;;;;;;;5.40;4.20;;;14.90;1.00;;;;;;4991526;28;20419;-85
2023/09/29 00:31:04;;;;;;;4.40;4.00;;;15.30;1.00;;;;;;4991661;28;20520;-85
2023/09/29 00:33:30;;;;;;;4.40;4.00;;;14.60;1.00;;;;;;4992805;28;20905;-85
2023/09/29 00:35:58;;;;;;;5.88;4.57;;;14.60;1.00;;;;;;4991360;28;20528;-84
2023/09/29 00:38:24;;;;;;;5.22;4.40;;;14.80;1.00;;;;;;4991619;28;20771;-84
2023/09/29 00:40:49;;;;;;;5.17;4.07;;;14.90;1.00;;;;;;4993642;28;20452;-85
2023/09/29 00:43:15;;;;;;;4.50;4.10;;;14.60;1.00;;;;;;5002161;28;20387;-85
2023/09/29 00:45:42;;;;;;;4.40;4.00;;;14.80;1.00;;;;;;4995117;28;20767;-85
2023/09/29 00:48:08;;;;;;;4.32;3.60;;;14.80;1.00;;;;;;4991292;28;20402;-84
2023/09/29 00:50:35;;;;;;;5.40;4.07;;;14.70;1.00;;;;;;4990957;28;20485;-85
2023/09/29 00:53:07;;;;;;;4.88;4.28;;;14.70;1.00;;;;;;4990880;28;20413;-85
2023/09/29 00:55:35;;;;;;;4.80;3.83;;;15.20;1.00;;;;;;4991092;28;20429;-85
2023/09/29 00:58:02;;;;;;;5.35;4.10;;;14.50;1.00;;;;;;4985111;28;20407;-84
2023/09/29 01:03:15;;;;;;;6.20;3.83;;;15.20;1.00;;;;;;4992721;28;20402;-85
2023/09/29 01:05:45;;;;;;;4.90;4.10;;;14.70;1.00;;;;;;4990483;28;20399;-85
2023/09/29 01:08:12;;;;;;;4.18;3.70;;;15.20;1.00;;;;;;4992017;28;20983;-85
2023/09/29 01:10:40;;;;;;;6.07;3.95;;;14.80;1.00;;;;;;4990465;28;20929;-85
2023/09/29 01:13:06;;;;;;;6.38;4.30;;;15.10;1.00;;;;;;4992516;28;20460;-85
2023/09/29 01:15:33;;;;;;;4.90;4.00;;;14.90;1.00;;;;;;4990272;28;20407;-85
2023/09/29 01:17:59;;;;;;;5.10;4.20;;;13.90;1.00;;;;;;4990703;28;20411;-85
2023/09/29 01:20:28;;;;;;;6.25;4.15;;;14.80;1.00;;;;;;4992419;28;20490;-85
2023/09/29 01:22:55;;;;;;;4.70;3.78;;;14.80;1.00;;;;;;4991979;28;20406;-85
2023/09/29 01:25:21;;;;;;;5.00;3.97;;;14.60;1.00;;;;;;4990571;28;20440;-85
2023/09/29 01:27:48;;;;;;;4.32;3.88;;;14.20;1.00;;;;;;4991258;28;20403;-85
2023/09/29 01:30:14;;;;;;;4.00;3.55;;;14.30;1.00;;;;;;4990797;28;20447;-84
2023/09/29 01:32:41;;;;;;;7.28;4.07;;;14.50;1.00;;;;;;4992263;28;20759;-85
2023/09/29 01:35:08;;;;;;;4.00;3.55;;;14.30;1.00;;;;;;4991810;28;20408;-85
2023/09/29 01:37:38;;;;;;;4.10;3.60;;;14.80;1.00;;;;;;4991766;28;20402;-85
2023/09/29 01:40:08;;;;;;;4.30;3.75;;;14.30;1.00;;;;;;4990355;28;20517;-85
2023/09/29 01:42:34;;;;;;;5.80;4.20;;;14.70;1.00;;;;;;4990302;28;20408;-85
2023/09/29 01:45:01;;;;;;;4.13;3.72;;;14.70;1.00;;;;;;4990111;28;20391;-85
2023/09/29 01:47:26;;;;;;;4.93;4.43;;;14.40;1.00;;;;;;4977701;28;20500;-85
2023/09/29 01:49:52;;;;;;;4.83;3.87;;;14.10;1.00;;;;;;4990304;28;20473;-85
2023/09/29 01:52:17;;;;;;;5.60;4.00;;;14.10;1.00;;;;;;4989711;28;20477;-85
2023/09/29 01:54:44;;;;;;;4.33;3.93;;;14.10;1.00;;;;;;4983652;28;20392;-85
2023/09/29 01:57:10;;;;;;;4.30;3.90;;;14.60;1.00;;;;;;4989691;28;20391;-85
2023/09/29 01:59:36;;;;;;;4.35;3.95;;;13.80;1.00;;;;;;4990188;28;21935;-85
2023/09/29 02:02:01;;;;;;;4.90;3.90;;;14.10;1.00;;;;;;4990910;28;20416;-85
2023/09/29 02:04:27;;;;;;;4.50;3.95;;;14.10;1.00;;;;;;4990171;28;20386;-85
2023/09/29 02:06:53;;;;;;;4.60;4.10;;;15.40;1.00;;;;;;4990040;28;20402;-85
2023/09/29 02:09:19;;;;;;;4.30;3.90;;;14.20;1.00;;;;;;4989878;28;20439;-84
2023/09/29 02:11:45;;;;;;;4.35;3.90;;;13.80;1.00;;;;;;4991272;28;20918;-84
2023/09/29 02:14:11;;;;;;;4.90;3.70;;;14.10;1.00;;;;;;4991064;28;20417;-84
2023/09/29 02:16:37;;;;;;;4.60;4.20;;;14.20;1.00;;;;;;4989540;28;20557;-85
2023/09/29 02:19:03;;;;;;;4.70;3.90;;;14.20;1.00;;;;;;4990939;28;20387;-85
2023/09/29 02:21:32;;;;;;;4.30;3.90;;;14.40;1.00;;;;;;4995037;28;20418;-84
2023/09/29 02:23:58;;;;;;;5.60;3.75;;;14.20;1.00;;;;;;4991105;28;20410;-84
2023/09/29 02:26:25;;;;;;;3.88;3.50;;;14.00;1.00;;;;;;4989810;28;20548;-85
2023/09/29 02:28:50;;;;;;;4.00;3.60;;;14.00;1.00;;;;;;4990354;28;20395;-85
2023/09/29 02:31:16;;;;;;;5.23;3.90;;;14.00;1.00;;;;;;4996594;28;20506;-85
2023/09/29 02:33:41;;;;;;;5.50;4.00;;;14.00;1.00;;;;;;5001801;28;20384;-85
2023/09/29 02:36:08;;;;;;;5.35;3.88;;;14.10;1.00;;;;;;5003441;28;20661;-85
2023/09/29 02:38:34;;;;;;;3.97;3.67;;;13.40;1.00;;;;;;5005876;28;20391;-85
2023/09/29 02:40:59;;;;;;;4.47;4.07;;;14.00;1.00;;;;;;5007288;28;20406;-85
2023/09/29 02:43:30;;;;;;;4.90;4.00;;;14.10;1.00;;;;;;5002743;28;20524;-84
2023/09/29 02:45:58;;;;;;;4.50;3.80;;;14.20;1.00;;;;;;5001328;28;20437;-85
2023/09/29 02:48:24;;;;;;;6.73;3.70;;;15.30;1.00;;;;;;4999313;28;20407;-85
2023/09/29 02:50:50;;;;;;;5.10;4.00;;;14.10;1.00;;;;;;4994291;28;20921;-85
2023/09/29 02:53:16;;;;;;;4.00;3.70;;;14.10;1.00;;;;;;4997178;28;20406;-85
2023/09/29 02:55:44;;;;;;;4.37;3.60;;;13.70;1.00;;;;;;4989845;28;20406;-85
2023/09/29 02:58:09;;;;;;;4.00;3.60;;;13.80;1.00;;;;;;5002640;28;20457;-85
2023/09/29 03:00:35;;;;;;;4.60;3.97;;;13.70;1.00;;;;;;4991961;28;20490;-85
2023/09/29 03:03:02;;;;;;;5.00;4.00;;;14.40;1.00;;;;;;4990096;28;20398;-85
2023/09/29 03:05:28;;;;;;;4.20;3.80;;;16.20;1.00;;;;;;4990636;28;20482;-84
2023/09/29 03:07:55;;;;;;;5.90;3.97;;;14.20;1.00;;;;;;4989374;28;20473;-85
2023/09/29 03:10:21;;;;;;;4.30;3.50;;;14.20;1.00;;;;;;4991402;28;20405;-85
2023/09/29 03:12:46;;;;;;;4.70;4.03;;;14.40;1.00;;;;;;4996406;28;20426;-85
2023/09/29 03:15:16;;;;;;;4.05;3.65;;;14.10;1.00;;;;;;5000287;28;20406;-85
2023/09/29 03:17:43;;;;;;;3.80;3.50;;;13.00;1.00;;;;;;4991744;28;20417;-85
2023/09/29 03:20:11;;;;;;;4.60;4.10;;;14.20;1.00;;;;;;4996705;28;20918;-85
2023/09/29 03:22:37;;;;;;;5.10;3.60;;;14.50;1.00;;;;;;4988814;28;20426;-84
2023/09/29 03:25:04;;;;;;;6.78;3.80;;;14.10;1.00;;;;;;4990754;28;20504;-85
2023/09/29 03:27:29;;;;;;;4.00;3.60;;;14.50;1.00;;;;;;4989199;28;20774;-85
2023/09/29 03:29:55;;;;;;;4.20;3.80;;;14.10;1.00;;;;;;4992647;28;20498;-85
2023/09/29 03:32:20;;;;;;;4.38;3.60;;;14.10;1.00;;;;;;4994169;28;20398;-85
2023/09/29 03:34:48;;;;;;;4.20;3.70;;;15.10;1.00;;;;;;4995066;28;20397;-85
2023/09/29 03:37:14;;;;;;;4.53;3.87;;;14.10;1.00;;;;;;4993049;28;20490;-85
2023/09/29 03:39:39;;;;;;;4.00;3.60;;;13.90;1.00;;;;;;4993141;28;21229;-85
2023/09/29 03:42:05;;;;;;;4.68;3.70;;;14.10;1.00;;;;;;4992743;28;20420;-85
2023/09/29 03:44:32;;;;;;;5.13;3.60;;;14.40;1.00;;;;;;4994632;28;20411;-85
2023/09/29 03:46:57;;;;;;;4.70;3.47;;;14.90;1.00;;;;;;4993828;28;20629;-85
2023/09/29 03:49:23;;;;;;;4.40;3.70;;;14.20;1.00;;;;;;4994127;28;20482;-85
2023/09/29 03:51:48;;;;;;;4.00;3.60;;;14.00;1.00;;;;;;4993823;28;20411;-85
2023/09/29 03:54:14;;;;;;;3.75;3.45;;;14.30;1.00;;;;;;4993095;28;20481;-85
2023/09/29 03:56:39;;;;;;;4.53;3.33;;;14.60;1.00;;;;;;4994497;28;20410;-85
2023/09/29 03:59:05;;;;;;;3.87;3.47;;;14.60;1.00;;;;;;4993299;28;20912;-85
2023/09/29 04:01:31;;;;;;;4.72;3.65;;;14.40;1.00;;;;;;4993783;28;20406;-84
2023/09/29 04:03:56;;;;;;;4.30;3.50;;;14.70;1.00;;;;;;4994955;28;20482;-85
2023/09/29 04:06:22;;;;;;;5.40;3.53;;;14.70;1.00;;;;;;4992963;28;20405;-85
2023/09/29 04:08:47;;;;;;;4.30;3.40;;;14.60;1.00;;;;;;4994286;28;20403;-85
2023/09/29 04:16:33;;;;;;;3.72;3.30;;;15.00;1.00;;;;;;5011484;28;20434;-85
2023/09/29 04:19:01;;;;;;;3.63;3.33;;;14.90;1.00;;;;;;4982120;28;20526;-85
2023/09/29 04:38:51;;;;;;;3.92;3.53;;;16.80;1.00;;;;;;4938596;29;20814;-84
2023/09/29 04:46:18;;;;;;;;;;;;;;;;;;;;;
2023/09/29 05:10:19;;;;;;;5.22;4.00;;;14.70;1.00;;;;;;4983369;28;20976;-87
2023/09/29 05:12:54;;;;;;;4.43;4.03;;;13.50;1.00;;;;;;4971890;28;20387;-87
2023/09/29 05:26:41;;;;;;;6.95;3.75;;;14.80;1.00;;;;;;4944008;29;20758;-85
2023/09/29 05:33:16;;;;;;;5.45;4.03;;;14.90;1.00;;;;;;4917256;29;20404;-87
2023/09/29 06:14:24;;;;;;;4.20;3.80;;;15.30;1.00;;;;;;5087535;23;20447;-85
2023/09/29 06:17:27;;;;;;;3.72;3.30;;;15.20;1.00;;;;;;5045408;28;20406;-86
2023/09/29 06:20:31;;;;;;;3.30;3.00;;;15.70;1.00;;;;;;5045843;28;20466;-87
2023/09/29 06:37:34;;;;;;;4.20;3.42;;;15.70;1.00;;;;;;4943547;29;20392;-88
2023/09/29 06:40:41;;;;;;;3.50;3.20;;;16.00;1.00;;;;;;4969445;28;20391;-86
2023/09/29 06:43:19;;;;;;;;;;;;;;;;;;;;;
2023/09/29 06:45:58;;;;;;;4.03;3.15;;;16.30;1.00;;;;;;5009365;28;20737;-85
2023/09/29 08:12:19;;;;;;;3.40;3.10;;;21.90;1.00;;;;;;5008088;28;20512;-87
2023/09/29 08:14:57;;;;;;;3.28;2.97;;;22.30;1.00;;;;;;4995247;28;20390;-88
2023/09/29 08:18:17;;;;;;;3.47;2.90;;;22.60;1.00;;;;;;4996934;28;20453;-87
2023/09/29 08:21:38;;;;;;;;;;;;;;;;;;;;;
2023/09/29 08:27:04;;;;;;;3.80;3.00;;;22.40;1.00;;;;;;5015106;28;20428;-84
2023/09/29 08:29:30;;;;;;;4.50;3.37;;;23.10;1.00;;;;;;5015087;28;20880;-86
2023/09/29 08:31:58;;;;;;;3.70;2.70;;;23.20;1.00;;;;;;5015536;28;20804;-84
2023/09/29 08:34:24;;;;;;;3.60;2.95;;;23.00;1.00;;;;;;5016741;28;20397;-85
2023/09/29 08:36:51;;;;;;;5.90;3.20;;;24.40;1.00;;;;;;4979182;28;20394;-85
2023/09/29 08:39:17;;;;;;;3.78;3.40;;;23.20;1.00;;;;;;4999381;28;20974;-83
2023/09/29 08:41:56;;;;;;;3.30;2.70;;;24.00;1.00;;;;;;4983081;28;20438;-83
2023/09/29 08:44:26;;;;;;;4.18;3.10;;;23.20;1.00;;;;;;5016280;28;20398;-83
2023/09/29 08:46:53;;;;;;;3.72;3.00;;;24.10;1.00;;;;;;4999964;28;20402;-83
2023/09/29 08:49:20;;;;;;;3.25;2.95;;;23.80;1.00;;;;;;4999138;28;20417;-83
2023/09/29 08:51:47;;;;;;;3.25;2.53;;;24.50;1.00;;;;;;4999913;28;20391;-84
2023/09/29 08:54:14;;;;;;;3.13;2.83;;;23.40;1.00;;;;;;5016539;28;20462;-84
2023/09/29 08:56:40;;;;;;;5.00;3.50;;;24.00;1.00;;;;;;5011662;28;20746;-83
2023/09/29 08:59:06;;;;;;;3.13;2.60;;;23.90;1.00;;;;;;4993991;28;20397;-83
2023/09/29 09:01:32;;;;;;;5.00;2.70;;;23.80;1.00;;;;;;4996830;28;20418;-83
2023/09/29 09:03:58;;;;;;;4.10;3.17;;;24.00;1.00;;;;;;4999610;28;20425;-82
2023/09/29 09:06:25;;;;;;;3.20;2.90;;;24.50;1.00;;;;;;4996205;28;20406;-82
2023/09/29 09:08:52;;;;;;;6.63;2.80;;;24.40;1.00;;;;;;5025314;28;20390;-83
2023/09/29 09:11:18;;;;;;;4.53;2.90;;;24.10;1.00;;;;;;4990280;28;20480;-82
2023/09/29 09:14:03;;;;;;;4.03;3.00;;;24.80;1.00;;;;;;5008537;28;20681;-83
2023/09/29 09:16:31;;;;;;;4.70;3.20;;;25.40;1.00;;;;;;4997086;28;20398;-82
2023/09/29 09:19:08;;;;;;;3.47;2.97;;;24.50;1.00;;;;;;5015255;28;20454;-83
2023/09/29 09:21:33;;;;;;;3.50;3.20;;;24.00;1.00;;;;;;5000113;28;20517;-85
2023/09/29 09:23:59;;;;;;;3.50;2.83;;;23.90;1.00;;;;;;5001386;28;20430;-84
2023/09/29 09:26:28;;;;;;;3.97;2.90;;;23.90;1.00;;;;;;4999509;28;20414;-85
2023/09/29 09:28:53;;;;;;;3.83;3.13;;;25.70;1.00;;;;;;5001279;28;20394;-85
2023/09/29 09:31:19;;;;;;;3.50;3.00;;;24.00;1.00;;;;;;5021246;28;20402;-84
2023/09/29 09:33:53;;;;;;;4.13;3.20;;;23.90;1.00;;;;;;4985194;28;20524;-84
2023/09/29 09:36:19;;;;;;;3.83;3.40;;;25.30;1.00;;;;;;4982681;28;20394;-85
2023/09/29 09:38:47;;;;;;;3.70;3.08;;;24.20;1.00;;;;;;4984471;28;20425;-85
2023/09/29 09:41:16;;;;;;;6.20;3.35;;;24.70;1.00;;;;;;4982806;28;20410;-84
2023/09/29 09:43:43;;;;;;;3.50;2.97;;;24.90;1.00;;;;;;4998972;28;20425;-84
2023/09/29 09:46:12;;;;;;;3.67;3.20;;;24.60;1.00;;;;;;4998698;28;20416;-84
2023/09/29 09:48:55;;;;;;;4.20;3.17;;;24.00;1.00;;;;;;4999419;28;20394;-83
2023/09/29 09:51:35;;;;;;;4.60;3.00;;;24.70;1.00;;;;;;4980123;28;20411;-84
2023/09/29 09:54:04;;;;;;;3.90;3.50;;;24.10;1.00;;;;;;4989531;28;20888;-85
2023/09/29 09:56:45;;;;;;;6.45;3.38;;;24.10;1.00;;;;;;5000519;28;20462;-84
2023/09/29 09:59:13;;;;;;;4.03;3.20;;;24.10;1.00;;;;;;5000162;28;20398;-84
2023/09/29 10:01:39;;;;;;;3.33;3.03;;;24.20;1.00;;;;;;4981145;28;20504;-83
2023/09/29 10:04:06;;;;;;;3.40;2.80;;;24.10;1.00;;;;;;4997687;28;20837;-83
2023/09/29 10:06:33;;;;;;;3.80;3.20;;;24.20;1.00;;;;;;4980615;28;20390;-84
2023/09/29 10:09:00;;;;;;;4.18;3.40;;;25.10;1.00;;;;;;5013825;28;20914;-83
2023/09/29 10:11:26;;;;;;;4.60;3.10;;;25.00;1.00;;;;;;4981291;28;20398;-85
2023/09/29 10:14:04;;;;;;;3.80;3.30;;;24.00;1.00;;;;;;4977985;28;20500;-87
2023/09/29 10:16:31;;;;;;;3.88;2.90;;;24.40;1.00;;;;;;4995209;28;20882;-85
2023/09/29 10:19:05;;;;;;;5.23;2.97;;;24.00;1.00;;;;;;4976715;28;20401;-84
2023/09/29 10:21:41;;;;;;;3.67;3.38;;;24.60;1.00;;;;;;4984391;28;20760;-84
2023/09/29 10:24:07;;;;;;;3.15;2.85;;;25.10;1.00;;;;;;4976582;28;20398;-83
2023/09/29 10:26:48;;;;;;;3.75;2.90;;;24.50;1.00;;;;;;4998299;28;20433;-83
2023/09/29 10:29:30;;;;;;;3.20;2.90;;;26.10;1.00;;;;;;5004543;28;20426;-86
2023/09/29 10:32:11;;;;;;;3.20;2.90;;;24.90;1.00;;;;;;4993690;28;20406;-84
2023/09/29 10:34:40;;;;;;;3.60;3.30;;;24.60;1.00;;;;;;4976208;28;20397;-85
2023/09/29 10:37:06;;;;;;;3.53;3.20;;;26.30;1.00;;;;;;4982208;28;20976;-84
2023/09/29 10:39:32;;;;;;;3.70;3.27;;;25.70;1.00;;;;;;4995653;28;20406;-84
2023/09/29 10:42:15;;;;;;;3.70;3.40;;;24.90;1.00;;;;;;5010955;28;20414;-83
2023/09/29 10:44:52;;;;;;;3.72;3.42;;;24.90;1.00;;;;;;4978127;28;20398;-85
2023/09/29 10:47:38;;;;;;;4.90;3.70;;;24.30;1.00;;;;;;4975973;28;20406;-84
2023/09/29 10:50:05;;;;;;;4.72;3.55;;;26.00;1.00;;;;;;4978721;28;20537;-83
2023/09/29 10:52:31;;;;;;;4.63;3.67;;;24.90;1.00;;;;;;4975345;28;20394;-86
2023/09/29 10:54:58;;;;;;;3.77;3.47;;;24.90;1.00;;;;;;4978096;28;20413;-84
2023/09/29 10:57:25;;;;;;;5.65;3.70;;;25.60;1.00;;;;;;4994189;28;20846;-83
2023/09/29 10:59:52;;;;;;;4.18;3.75;;;26.10;1.00;;;;;;4977249;28;20413;-83
2023/09/29 11:02:18;;;;;;;4.00;3.60;;;25.40;1.00;;;;;;4997499;28;20410;-82
2023/09/29 11:04:47;;;;;;;4.10;3.70;;;26.40;1.00;;;;;;4995213;28;20398;-85
2023/09/29 11:07:17;;;;;;;4.90;3.70;;;26.70;1.00;;;;;;4977317;28;20462;-84
2023/09/29 11:09:42;;;;;;;4.13;3.72;;;25.20;1.00;;;;;;5010892;28;20399;-85
2023/09/29 11:12:17;;;;;;;4.80;4.30;;;25.40;1.00;;;;;;4978563;28;20711;-84
2023/09/29 11:14:43;;;;;;;4.55;3.83;;;25.40;1.00;;;;;;4976478;28;20902;-85
2023/09/29 11:17:10;;;;;;;5.28;4.10;;;25.50;1.00;;;;;;4977611;28;20402;-85
2023/09/29 11:19:36;;;;;;;4.03;3.63;;;26.10;1.00;;;;;;4980916;28;20413;-85
2023/09/29 11:22:03;;;;;;;4.80;3.60;;;27.70;1.00;;;;;;4989072;28;20414;-85
2023/09/29 11:24:43;;;;;;;3.90;3.60;;;27.60;1.00;;;;;;5008398;28;20394;-85
2023/09/29 11:27:10;;;;;;;3.92;3.50;;;27.40;1.00;;;;;;4992726;28;20406;-84
2023/09/29 11:29:35;;;;;;;4.90;3.33;;;27.50;1.00;;;;;;4991423;28;20455;-85
2023/09/29 11:32:01;;;;;;;3.90;3.60;;;28.10;1.00;;;;;;5008172;28;20390;-85
2023/09/29 11:34:29;;;;;;;4.90;4.00;;;28.60;1.00;;;;;;4988883;28;20403;-85
2023/09/29 11:36:55;;;;;;;4.13;3.47;;;28.30;1.00;;;;;;4996474;28;20390;-86
2023/09/29 11:39:22;;;;;;;3.50;3.20;;;28.50;1.00;;;;;;4977084;28;20390;-85
2023/09/29 11:41:48;;;;;;;3.70;3.40;;;27.40;1.00;;;;;;5008826;28;20418;-86
2023/09/29 11:44:15;;;;;;;4.10;3.45;;;27.90;1.00;;;;;;4978918;28;20393;-88
2023/09/29 11:46:41;;;;;;;4.60;3.28;;;27.70;1.00;;;;;;4996254;28;20386;-85
2023/09/29 11:49:09;;;;;;;4.20;3.80;;;27.60;1.00;;;;;;4986839;28;20404;-87
2023/09/29 11:51:36;;;;;;;6.88;3.40;;;27.20;1.00;;;;;;4992830;28;20409;-84
2023/09/29 11:54:03;;;;;;;4.00;3.60;;;28.60;1.00;;;;;;5003433;28;20388;-83
2023/09/29 11:56:28;;;;;;;3.92;2.88;;;27.90;1.00;;;;;;5016936;28;20402;-87
2023/09/29 11:58:54;;;;;;;3.97;3.20;;;27.50;1.00;;;;;;4981634;28;20397;-84
2023/09/29 12:01:19;;;;;;;3.63;3.20;;;27.60;1.00;;;;;;5020761;28;20453;-83
2023/09/29 12:03:45;;;;;;;7.93;3.80;;;27.80;1.00;;;;;;4999849;28;20399;-83
2023/09/29 12:06:10;;;;;;;3.57;3.00;;;27.70;1.00;;;;;;4990008;28;20402;-84
2023/09/29 12:08:36;;;;;;;3.40;3.10;;;27.80;1.00;;;;;;5005352;28;20481;-84
2023/09/29 12:11:07;;;;;;;3.38;3.08;;;28.10;1.00;;;;;;4995361;28;20525;-85
2023/09/29 12:13:35;;;;;;;5.45;3.40;;;27.90;1.00;;;;;;4983505;28;20394;-85
2023/09/29 12:16:04;;;;;;;3.20;2.90;;;27.90;1.00;;;;;;4988719;28;20923;-83
2023/09/29 12:18:29;;;;;;;3.60;2.83;;;28.30;1.00;;;;;;4992399;28;20889;-85
2023/09/29 12:20:56;;;;;;;3.10;2.80;;;27.80;1.00;;;;;;4989741;28;20417;-83
2023/09/29 12:23:22;;;;;;;4.70;2.93;;;28.10;1.00;;;;;;4995306;28;20391;-83
2023/09/29 12:25:47;;;;;;;4.55;2.55;;;27.70;1.00;;;;;;4977488;28;20525;-84
2023/09/29 12:28:14;;;;;;;2.72;2.53;;;27.70;1.00;;;;;;4978192;28;20928;-83
2023/09/29 12:30:45;;;;;;;2.93;2.60;;;27.40;1.00;;;;;;4977029;28;20444;-87
2023/09/29 12:33:11;;;;;;;3.55;2.90;;;26.90;1.00;;;;;;4994380;28;20402;-84
2023/09/29 12:35:36;;;;;;;2.90;2.63;;;26.70;1.00;;;;;;4987157;28;20456;-86
2023/09/29 12:38:03;;;;;;;3.60;3.30;;;26.00;1.00;;;;;;4980570;28;20542;-84
2023/09/29 12:40:28;;;;;;;3.67;2.90;;;25.80;1.00;;;;;;5009677;28;20905;-84
2023/09/29 12:42:54;;;;;;;3.40;2.70;;;25.70;1.00;;;;;;5008744;28;20440;-84
2023/09/29 12:45:21;;;;;;;3.97;3.17;;;27.00;1.00;;;;;;5008980;28;20442;-84
2023/09/29 12:47:51;;;;;;;4.30;3.20;;;26.40;1.00;;;;;;4989232;28;20400;-86
2023/09/29 12:50:18;;;;;;;3.70;3.20;;;26.30;1.00;;;;;;4980268;28;20398;-85
2023/09/29 12:52:51;;;;;;;3.30;2.87;;;25.80;1.00;;;;;;5016302;28;20457;-82
2023/09/29 12:55:18;;;;;;;4.67;4.10;;;25.80;1.00;;;;;;4989900;28;20410;-82
2023/09/29 12:57:44;;;;;;;3.50;2.90;;;25.60;1.00;;;;;;4990416;28;20400;-81
2023/09/29 13:00:18;;;;;;;4.20;2.55;;;26.00;1.00;;;;;;5008016;28;20478;-82
2023/09/29 13:02:45;;;;;;;3.33;2.58;;;25.80;1.00;;;;;;4987235;28;20419;-82
2023/09/29 13:05:10;;;;;;;3.53;2.20;;;25.80;1.00;;;;;;5009634;28;20472;-81
2023/09/29 13:07:36;;;;;;;2.65;2.20;;;25.70;1.00;;;;;;4992675;28;20433;-82
2023/09/29 13:10:02;;;;;;;3.00;2.70;;;25.90;1.00;;;;;;4989932;28;20392;-83
2023/09/29 13:12:27;;;;;;;3.88;2.90;;;25.50;1.00;;;;;;4986886;28;20407;-84
2023/09/29 13:14:53;;;;;;;2.70;2.40;;;25.60;1.00;;;;;;4989753;28;20488;-82
2023/09/29 13:17:18;;;;;;;4.57;2.85;;;26.00;1.00;;;;;;4986593;28;20853;-82
2023/09/29 13:19:44;;;;;;;3.80;2.30;;;26.40;1.00;;;;;;5006262;28;20833;-81
2023/09/29 13:22:11;;;;;;;3.28;2.80;;;26.70;1.00;;;;;;4988156;28;20949;-82
2023/09/29 13:24:36;;;;;;;3.97;2.80;;;26.80;1.00;;;;;;5005492;28;20477;-82
2023/09/29 13:27:02;;;;;;;2.50;2.30;;;27.20;1.00;;;;;;5006479;28;20410;-84
2023/09/29 13:29:28;;;;;;;2.55;2.30;;;26.90;1.00;;;;;;4989100;28;20436;-83
2023/09/29 13:31:53;;;;;;;5.20;2.60;;;27.40;1.00;;;;;;4987406;28;20401;-81
2023/09/29 13:34:19;;;;;;;2.60;2.40;;;27.30;1.00;;;;;;4969964;28;20407;-82
2023/09/29 13:36:45;;;;;;;3.50;2.53;;;27.10;1.00;;;;;;5007622;28;20459;-83
2023/09/29 13:39:12;;;;;;;3.23;2.70;;;26.30;1.00;;;;;;5004062;28;20428;-82
2023/09/29 13:41:37;;;;;;;2.50;2.30;;;26.50;1.00;;;;;;5007576;28;20887;-82
2023/09/29 13:44:03;;;;;;;3.30;2.47;;;26.30;1.00;;;;;;4987857;28;20398;-82
2023/09/29 13:46:29;;;;;;;3.15;2.33;;;26.50;1.00;;;;;;4988974;28;20406;-83
2023/09/29 13:48:54;;;;;;;3.60;2.00;;;27.20;1.00;;;;;;4990476;28;20471;-83
2023/09/29 13:51:20;;;;;;;3.67;2.20;;;26.60;1.00;;;;;;5006047;28;20403;-84
2023/09/29 13:53:46;;;;;;;4.32;2.42;;;26.50;1.00;;;;;;4990952;28;20414;-83
2023/09/29 13:56:12;;;;;;;3.20;2.30;;;26.20;1.00;;;;;;4992768;28;20397;-83
2023/09/29 13:58:38;;;;;;;3.80;2.58;;;26.00;1.00;;;;;;5004704;28;20761;-82
2023/09/29 14:01:09;;;;;;;5.07;2.80;;;26.50;1.00;;;;;;4989113;28;21106;-82
2023/09/29 14:03:35;;;;;;;6.60;3.50;;;26.70;1.00;;;;;;5006665;28;20429;-83
2023/09/29 14:06:01;;;;;;;6.32;4.03;;;26.70;1.00;;;;;;5007461;28;20397;-82
2023/09/29 14:08:26;;;;;;;8.63;4.85;;;26.70;1.00;;;;;;5005104;28;20410;-82
2023/09/29 14:10:52;;;;;;;8.00;5.10;;;26.50;1.00;;;;;;5005182;28;20406;-82
2023/09/29 14:13:18;;;;;;;7.57;4.53;;;26.30;1.00;;;;;;5004681;28;20415;-84
2023/09/29 14:15:43;;;;;;;8.10;5.15;;;26.40;1.00;;;;;;5006249;28;20402;-84
2023/09/29 14:18:09;;;;;;;10.57;6.30;;;26.50;1.00;;;;;;4988190;28;20401;-83
2023/09/29 14:20:35;;;;;;;9.67;5.90;;;25.80;1.00;;;;;;4999795;28;21112;-81
2023/09/29 14:23:08;;;;;;;12.32;7.53;;;26.70;1.00;;;;;;5002240;28;21152;-83
2023/09/29 14:25:37;;;;;;;10.48;6.82;;;26.40;1.00;;;;;;5007952;22;20492;-93
2023/09/29 14:28:04;;;;;;;16.30;8.90;;;26.60;1.00;;;;;;5031861;28;20403;-89
2023/09/29 14:30:30;;;;;;;13.98;8.52;;;26.80;1.00;;;;;;5036596;28;20473;-91
2023/09/29 14:32:56;;;;;;;13.43;8.20;;;26.30;1.00;;;;;;5036534;28;20379;-85
2023/09/29 14:35:25;;;;;;;12.90;7.80;;;27.00;1.00;;;;;;5028568;28;20410;-85
2023/09/29 14:37:54;;;;;;;15.10;8.98;;;26.40;1.00;;;;;;5011722;28;20484;-87
2023/09/29 14:40:20;;;;;;;11.23;7.60;;;26.40;1.00;;;;;;5009888;28;20387;-85
2023/09/29 14:42:45;;;;;;;15.40;9.25;;;26.70;1.00;;;;;;5011281;28;20416;-87
2023/09/29 14:45:11;;;;;;;12.57;9.00;;;26.80;1.00;;;;;;5010904;28;20409;-87
2023/09/29 14:47:36;;;;;;;14.00;8.87;;;26.60;1.00;;;;;;5010981;28;20403;-87
2023/09/29 14:50:03;;;;;;;16.07;10.80;;;26.50;1.00;;;;;;5012475;28;20405;-87
2023/09/29 14:52:28;;;;;;;15.30;10.43;;;26.30;1.00;;;;;;5012027;28;20431;-88
2023/09/29 14:54:54;;;;;;;15.48;9.50;;;26.50;1.00;;;;;;5012038;28;20442;-85
2023/09/29 14:57:21;;;;;;;14.20;9.87;;;26.60;1.00;;;;;;5010327;28;20939;-83
2023/09/29 14:59:47;;;;;;;15.00;10.02;;;26.50;1.00;;;;;;5010642;28;20401;-85
2023/09/29 15:02:13;;;;;;;14.10;10.03;;;26.10;1.00;;;;;;5014859;28;20427;-86
2023/09/29 15:04:38;;;;;;;14.10;9.38;;;26.20;1.00;;;;;;5026162;28;20401;-86
2023/09/29 15:07:04;;;;;;;13.03;9.47;;;25.70;1.00;;;;;;5032683;28;20436;-85
2023/09/29 15:09:30;;;;;;;13.67;8.93;;;25.90;1.00;;;;;;5029262;28;20397;-85
2023/09/29 15:11:56;;;;;;;14.48;8.80;;;25.70;1.00;;;;;;5033563;28;20393;-86
2023/09/29 15:14:21;;;;;;;12.53;8.90;;;26.00;1.00;;;;;;5026619;28;20412;-85
2023/09/29 15:16:47;;;;;;;13.35;8.30;;;25.80;1.00;;;;;;5013119;28;20815;-86
2023/09/29 15:19:16;;;;;;;11.30;8.37;;;25.60;1.00;;;;;;5012519;28;20403;-85
2023/09/29 15:21:42;;;;;;;12.40;8.70;;;26.30;1.00;;;;;;5013998;28;20439;-86
2023/09/29 15:24:08;;;;;;;13.80;8.67;;;25.20;1.00;;;;;;5010166;28;20483;-86
2023/09/29 15:26:34;;;;;;;11.02;7.60;;;25.00;1.00;;;;;;5012783;28;20401;-84
2023/09/29 15:29:00;;;;;;;9.70;7.33;;;24.90;1.00;;;;;;5015334;28;20480;-84
2023/09/29 15:31:26;;;;;;;12.00;8.90;;;26.30;1.00;;;;;;5015141;28;20436;-84
2023/09/29 15:33:51;;;;;;;12.68;8.13;;;25.70;1.00;;;;;;5013500;28;20393;-84
2023/09/29 15:36:17;;;;;;;10.40;7.90;;;25.40;1.00;;;;;;5013558;28;20780;-84
2023/09/29 15:38:42;;;;;;;12.77;8.82;;;26.10;1.00;;;;;;5016259;28;20396;-84
2023/09/29 15:41:08;;;;;;;13.17;8.50;;;25.00;1.00;;;;;;5016307;28;20412;-85
2023/09/29 15:43:35;;;;;;;12.18;8.75;;;24.90;1.00;;;;;;5013355;28;20420;-84
2023/09/29 15:46:13;;;;;;;13.38;8.70;;;24.80;1.00;;;;;;5014436;28;20420;-84
2023/09/29 15:48:40;;;;;;;12.77;9.30;;;25.40;1.00;;;;;;5014465;28;20397;-84
2023/09/29 15:51:06;;;;;;;12.68;9.18;;;24.90;1.00;;;;;;5032986;28;20611;-84
2023/09/29 15:53:35;;;;;;;15.10;9.77;;;25.60;1.00;;;;;;5039650;28;20380;-84
2023/09/29 15:56:04;;;;;;;17.33;9.50;;;24.20;1.00;;;;;;5035234;28;20417;-84
2023/09/29 15:58:33;;;;;;;13.23;10.20;;;24.60;1.00;;;;;;5023087;28;20396;-84
2023/09/29 16:00:58;;;;;;;13.07;9.23;;;24.50;1.00;;;;;;5016290;28;20420;-83
2023/09/29 16:03:24;;;;;;;14.70;10.77;;;23.60;1.00;;;;;;5014023;28;20385;-83
2023/09/29 16:05:50;;;;;;;15.60;10.80;;;24.00;1.00;;;;;;5013273;28;20392;-85
2023/09/29 16:08:17;;;;;;;16.27;10.35;;;25.20;1.00;;;;;;5015589;28;20448;-84
2023/09/29 16:10:42;;;;;;;15.57;10.75;;;23.70;1.00;;;;;;5013396;28;20389;-85
2023/09/29 16:13:12;;;;;;;17.53;11.50;;;23.70;1.00;;;;;;5013559;28;20399;-83
2023/09/29 16:15:41;;;;;;;16.17;10.98;;;23.20;1.00;;;;;;5015825;28;20400;-85
2023/09/29 16:18:07;;;;;;;19.05;12.10;;;23.50;1.00;;;;;;5037026;28;20396;-84
2023/09/29 16:20:36;;;;;;;16.70;10.90;;;23.80;1.00;;;;;;5048790;28;20426;-84
2023/09/29 16:23:01;;;;;;;16.50;11.27;;;22.90;1.00;;;;;;5039494;28;20407;-84
2023/09/29 16:25:27;;;;;;;17.33;12.00;;;23.30;1.00;;;;;;5036719;28;20405;-84
2023/09/29 16:27:52;;;;;;;18.42;12.50;;;23.40;1.00;;;;;;5035968;28;20401;-83
2023/09/29 16:30:18;;;;;;;18.17;11.97;;;22.60;1.00;;;;;;5035356;28;20420;-84